createdAt,value
2018-12-07T00:00:31.443Z,35.13
2018-12-07T00:03:02.485Z,36.23
2018-12-07T00:05:32.213Z,36.30
2018-12-07T00:08:07.026Z,35.20
2018-12-07T00:10:37.277Z,33.83
2018-12-07T00:13:07.492Z,29.33
2018-12-07T00:15:38.552Z,25.83
2018-12-07T00:18:08.828Z,40.67
2018-12-07T00:20:38.552Z,29.80
2018-12-07T00:23:09.612Z,40.40
2018-12-07T00:25:40.921Z,28.60
2018-12-07T00:28:11.512Z,33.87
2018-12-07T00:30:41.743Z,35.27
2018-12-07T00:33:12.834Z,35.67
2018-12-07T00:35:43.693Z,30.17
2018-12-07T00:38:13.874Z,29.00
2018-12-07T00:40:44.680Z,31.43
2018-12-07T00:43:18.388Z,39.03
2018-12-07T00:45:49.644Z,32.90
2018-12-07T00:48:20.573Z,40.00
2018-12-07T00:50:50.733Z,31.47
2018-12-07T00:53:21.650Z,28.27
2018-12-07T00:55:52.672Z,26.70
2018-12-07T00:58:22.608Z,31.20
2018-12-07T01:00:53.812Z,29.33
2018-12-07T01:03:24.897Z,30.93
2018-12-07T01:05:55.760Z,31.27
2018-12-07T01:08:26.279Z,31.27
2018-12-07T01:10:56.728Z,29.40
2018-12-07T01:13:26.684Z,26.03
2018-12-07T01:15:57.689Z,31.20
2018-12-07T01:18:29.004Z,34.30
2018-12-07T01:20:58.929Z,26.60
2018-12-07T01:23:29.766Z,30.53
2018-12-07T01:25:59.793Z,35.20
2018-12-07T01:28:30.883Z,32.23
2018-12-07T01:31:00.875Z,26.30
2018-12-07T01:33:31.906Z,30.10
2018-12-07T01:36:02.919Z,34.57
2018-12-07T01:38:38.753Z,33.50
2018-12-07T01:41:10.986Z,32.17
2018-12-07T01:43:44.698Z,32.73
2018-12-07T01:46:18.117Z,34.30
2018-12-07T01:48:48.088Z,26.93
2018-12-07T01:51:18.857Z,34.10
2018-12-07T01:53:49.490Z,33.40
2018-12-07T01:56:19.953Z,35.73
2018-12-07T01:58:50.873Z,35.00
2018-12-07T02:01:21.845Z,29.80
2018-12-07T02:03:52.320Z,33.13
2018-12-07T02:06:23.083Z,31.97
2018-12-07T02:08:59.549Z,42.17
2018-12-07T02:11:32.372Z,37.80
2018-12-07T02:14:01.921Z,27.93
2018-12-07T02:16:32.149Z,34.90
2018-12-07T02:19:02.928Z,27.80
2018-12-07T02:21:32.495Z,31.80
2018-12-07T02:24:04.021Z,32.90
2018-12-07T02:26:35.952Z,32.20
2018-12-07T02:29:08.095Z,35.37
2018-12-07T02:31:39.092Z,29.33
2018-12-07T02:34:09.217Z,32.50
2018-12-07T02:36:39.027Z,34.00
2018-12-07T02:39:10.093Z,33.53
2018-12-07T02:41:42.251Z,30.53
2018-12-07T02:44:14.240Z,31.93
2018-12-07T02:46:44.484Z,27.53
2018-12-07T02:49:15.089Z,31.33
2018-12-07T02:51:46.020Z,33.90
2018-12-07T02:54:16.234Z,34.70
2018-12-07T02:56:47.204Z,35.53
2018-12-07T02:59:18.439Z,34.53
2018-12-07T03:01:49.102Z,33.70
2018-12-07T03:04:19.290Z,32.87
2018-12-07T03:06:51.244Z,29.60
2018-12-07T03:09:23.700Z,29.03
2018-12-07T03:11:54.357Z,26.67
2018-12-07T03:14:27.997Z,29.50
2018-12-07T03:17:08.260Z,27.00
2018-12-07T03:19:40.566Z,27.80
2018-12-07T03:22:11.444Z,32.33
2018-12-07T03:24:42.393Z,33.20
2018-12-07T03:27:14.301Z,32.60
2018-12-07T03:29:45.168Z,31.37
2018-12-07T03:32:15.601Z,27.30
2018-12-07T03:34:45.373Z,28.30
2018-12-07T03:37:16.428Z,34.83
2018-12-07T03:39:47.200Z,32.13
2018-12-07T03:42:20.148Z,34.97
2018-12-07T03:44:51.396Z,36.50
2018-12-07T03:47:22.607Z,28.40
2018-12-07T03:49:52.658Z,35.07
2018-12-07T03:52:23.295Z,35.87
2018-12-07T03:54:54.548Z,24.67
2018-12-07T03:57:25.864Z,28.03
2018-12-07T03:59:56.471Z,31.60
2018-12-07T04:02:26.528Z,29.97
2018-12-07T04:04:57.735Z,34.63
2018-12-07T04:07:28.547Z,30.50
2018-12-07T04:09:59.713Z,27.83
2018-12-07T04:12:30.303Z,33.10
2018-12-07T04:15:01.590Z,31.03
2018-12-07T04:17:31.125Z,32.37
2018-12-07T04:20:01.588Z,32.43
2018-12-07T04:22:32.524Z,34.07
2018-12-07T04:25:03.673Z,41.13
2018-12-07T04:27:33.245Z,42.43
2018-12-07T04:30:22.703Z,36.47
2018-12-07T04:32:59.781Z,35.70
2018-12-07T04:35:29.698Z,25.80
2018-12-07T04:38:01.793Z,28.57
2018-12-07T04:40:32.685Z,33.70
2018-12-07T04:43:04.573Z,36.50
2018-12-07T04:45:35.563Z,33.63
2018-12-07T04:48:06.471Z,36.70
2018-12-07T04:50:36.772Z,31.40
2018-12-07T04:53:06.879Z,33.27
2018-12-07T04:55:37.951Z,29.40
2018-12-07T04:58:08.440Z,38.20
2018-12-07T05:00:39.003Z,38.60
2018-12-07T05:03:09.904Z,27.60
2018-12-07T05:05:40.784Z,29.13
2018-12-07T05:08:10.844Z,30.90
2018-12-07T05:10:41.902Z,30.93
2018-12-07T05:13:12.943Z,37.33
2018-12-07T05:15:43.685Z,28.67
2018-12-07T05:18:14.409Z,29.60
2018-12-07T05:20:44.923Z,26.80
2018-12-07T05:23:20.305Z,29.47
2018-12-07T05:25:49.841Z,30.53
2018-12-07T05:28:21.973Z,29.00
2018-12-07T05:30:53.528Z,32.60
2018-12-07T05:33:32.454Z,29.30
2018-12-07T05:36:02.043Z,33.13
2018-12-07T05:38:32.565Z,27.60
2018-12-07T05:41:03.026Z,31.43
2018-12-07T05:43:32.628Z,32.60
2018-12-07T05:46:07.404Z,31.07
2018-12-07T05:48:38.016Z,36.20
2018-12-07T05:51:08.614Z,32.43
2018-12-07T05:53:39.104Z,31.83
2018-12-07T05:56:10.033Z,30.67
2018-12-07T05:58:39.645Z,29.03
2018-12-07T06:01:16.978Z,33.30
2018-12-07T06:03:48.252Z,31.70
2018-12-07T06:06:19.021Z,30.33
2018-12-07T06:08:49.308Z,31.77
2018-12-07T06:11:20.370Z,33.53
2018-12-07T06:13:51.213Z,37.20
2018-12-07T06:16:22.164Z,31.33
2018-12-07T06:18:52.221Z,33.13
2018-12-07T06:21:23.124Z,38.57
2018-12-07T06:23:54.387Z,42.60
2018-12-07T06:26:24.101Z,28.00
2018-12-07T06:28:55.168Z,30.43
2018-12-07T06:31:27.517Z,34.10
2018-12-07T06:33:57.228Z,30.93
2018-12-07T06:36:28.241Z,28.27
2018-12-07T06:38:58.443Z,30.70
2018-12-07T06:41:29.265Z,31.87
2018-12-07T06:43:59.261Z,38.27
2018-12-07T06:46:30.152Z,35.10
2018-12-07T06:49:09.873Z,40.73
2018-12-07T06:51:40.504Z,35.53
2018-12-07T06:54:11.103Z,32.13
2018-12-07T06:56:41.869Z,33.90
2018-12-07T06:59:12.465Z,30.93
2018-12-07T07:01:43.080Z,32.77
2018-12-07T07:04:13.633Z,33.70
2018-12-07T07:06:43.264Z,33.77
2018-12-07T07:09:15.472Z,29.03
2018-12-07T07:11:45.455Z,30.53
2018-12-07T07:14:17.545Z,29.73
2018-12-07T07:16:47.486Z,29.60
2018-12-07T07:19:18.117Z,32.30
2018-12-07T07:21:49.209Z,32.23
2018-12-07T07:24:19.634Z,26.90
2018-12-07T07:26:50.580Z,30.27
2018-12-07T07:29:21.584Z,29.40
2018-12-07T07:31:52.471Z,30.70
2018-12-07T07:34:23.175Z,35.03
2018-12-07T07:36:53.412Z,32.20
2018-12-07T07:39:24.585Z,30.97
2018-12-07T07:41:55.166Z,31.73
2018-12-07T07:44:25.561Z,24.17
2018-12-07T07:46:56.461Z,31.07
2018-12-07T07:49:26.768Z,35.07
2018-12-07T07:51:57.669Z,39.87
2018-12-07T07:54:28.172Z,36.03
2018-12-07T07:56:58.656Z,32.80
2018-12-07T07:59:29.601Z,31.53
2018-12-07T08:02:00.462Z,30.83
2018-12-07T08:04:31.073Z,34.53
2018-12-07T08:07:01.765Z,31.77
2018-12-07T08:09:33.071Z,32.60
2018-12-07T08:12:02.712Z,31.17
2018-12-07T08:14:32.929Z,39.17
2018-12-07T08:17:04.495Z,28.40
2018-12-07T08:19:35.435Z,32.13
2018-12-07T08:22:05.846Z,28.77
2018-12-07T08:24:36.856Z,34.50
2018-12-07T08:27:07.960Z,27.00
2018-12-07T08:29:38.568Z,25.80
2018-12-07T08:32:08.859Z,35.93
2018-12-07T08:34:45.381Z,31.00
2018-12-07T08:37:20.526Z,30.80
2018-12-07T08:39:51.979Z,31.07
2018-12-07T08:42:21.872Z,31.33
2018-12-07T08:44:52.790Z,33.53
2018-12-07T08:47:22.904Z,32.70
2018-12-07T08:49:55.846Z,36.50
2018-12-07T08:52:26.917Z,32.57
2018-12-07T08:55:02.160Z,30.80
2018-12-07T08:57:31.894Z,31.00
2018-12-07T09:00:01.931Z,29.70
2018-12-07T09:02:33.024Z,34.53
2018-12-07T09:05:03.636Z,37.03
2018-12-07T09:07:33.161Z,31.80
2018-12-07T09:10:05.610Z,28.87
2018-12-07T09:12:35.945Z,33.00
2018-12-07T09:15:06.040Z,35.77
2018-12-07T09:17:35.879Z,33.73
2018-12-07T09:20:08.705Z,26.93
2018-12-07T09:22:38.547Z,29.93
2018-12-07T09:25:09.040Z,31.97
2018-12-07T09:27:38.991Z,37.33
2018-12-07T09:30:10.960Z,31.07
2018-12-07T09:32:41.565Z,33.43
2018-12-07T09:35:12.175Z,30.20
2018-12-07T09:37:41.930Z,34.13
2018-12-07T09:40:14.202Z,34.00
2018-12-07T09:42:44.952Z,31.23
2018-12-07T09:45:15.149Z,29.03
2018-12-07T09:47:45.177Z,33.60
2018-12-07T09:50:16.164Z,32.40
2018-12-07T09:52:47.017Z,32.30
2018-12-07T09:55:23.096Z,28.87
2018-12-07T09:57:55.158Z,37.47
2018-12-07T10:00:27.307Z,35.57
2018-12-07T10:02:58.379Z,35.67
2018-12-07T10:05:31.406Z,43.20
2018-12-07T10:08:02.390Z,39.33
2018-12-07T10:10:32.948Z,35.43
2018-12-07T10:13:08.000Z,33.93
2018-12-07T10:15:36.429Z,35.03
2018-12-07T10:18:08.022Z,34.00
2018-12-07T10:20:38.815Z,32.30
2018-12-07T10:23:15.216Z,29.03
2018-12-07T10:25:46.348Z,32.40
2018-12-07T10:28:17.272Z,30.10
2018-12-07T10:30:48.417Z,30.73
2018-12-07T10:33:18.461Z,32.80
2018-12-07T10:35:49.382Z,30.23
2018-12-07T10:38:20.353Z,38.37
2018-12-07T10:40:52.372Z,29.37
2018-12-07T10:43:24.510Z,28.03
2018-12-07T10:45:55.695Z,32.53
2018-12-07T10:48:26.434Z,32.00
2018-12-07T10:50:56.347Z,32.70
2018-12-07T10:53:27.823Z,29.03
2018-12-07T10:55:58.500Z,33.43
2018-12-07T10:58:28.709Z,27.83
2018-12-07T11:01:04.545Z,38.73
2018-12-07T11:03:48.480Z,31.37
2018-12-07T11:06:23.469Z,34.40
2018-12-07T11:09:06.356Z,42.63
2018-12-07T11:11:45.043Z,28.40
2018-12-07T11:14:16.814Z,36.40
2018-12-07T11:16:54.753Z,30.43
2018-12-07T11:19:30.293Z,30.37
2018-12-07T11:22:06.874Z,30.07
2018-12-07T11:24:42.343Z,35.07
2018-12-07T11:27:17.980Z,32.83
2018-12-07T11:29:54.486Z,30.60
2018-12-07T11:32:35.123Z,29.77
2018-12-07T11:35:10.166Z,36.83
2018-12-07T11:37:45.467Z,33.97
2018-12-07T11:40:16.916Z,39.63
2018-12-07T11:42:50.436Z,31.43
2018-12-07T11:45:30.601Z,35.23
2018-12-07T11:48:00.883Z,32.67
2018-12-07T11:50:31.019Z,33.97
2018-12-07T11:53:05.528Z,35.63
2018-12-07T11:55:36.032Z,37.90
2018-12-07T11:58:06.753Z,31.80
2018-12-07T12:00:37.325Z,37.57
2018-12-07T12:03:07.641Z,34.83
2018-12-07T12:05:38.557Z,33.97
2018-12-07T12:08:09.032Z,49.00
2018-12-07T12:10:42.965Z,38.47
2018-12-07T12:13:13.570Z,37.13
2018-12-07T12:15:43.713Z,34.40
2018-12-07T12:18:15.057Z,33.40
2018-12-07T12:20:45.960Z,35.13
2018-12-07T12:23:15.816Z,33.80
2018-12-07T12:25:45.768Z,33.17
2018-12-07T12:28:17.953Z,31.77
2018-12-07T12:30:48.044Z,43.77
2018-12-07T12:33:18.911Z,35.40
2018-12-07T12:35:49.972Z,44.37
2018-12-07T12:38:20.105Z,37.10
2018-12-07T12:40:51.034Z,42.17
2018-12-07T12:43:23.284Z,33.60
2018-12-07T12:45:55.873Z,33.80
2018-12-07T12:48:25.993Z,35.50
2018-12-07T12:50:59.862Z,39.53
2018-12-07T12:53:30.857Z,38.63
2018-12-07T12:56:03.270Z,36.53
2018-12-07T12:58:33.144Z,39.30
2018-12-07T13:01:02.971Z,41.73
2018-12-07T13:03:33.883Z,39.43
2018-12-07T13:06:03.953Z,36.90
2018-12-07T13:08:33.643Z,39.80
2018-12-07T13:11:06.019Z,46.83
2018-12-07T13:13:37.051Z,43.30
2018-12-07T13:16:07.175Z,44.10
2018-12-07T13:18:36.972Z,39.87
2018-12-07T13:21:08.162Z,36.67
2018-12-07T13:23:40.564Z,34.07
2018-12-07T13:26:16.022Z,43.43
2018-12-07T13:28:46.648Z,37.80
2018-12-07T13:31:17.160Z,39.73
2018-12-07T13:33:48.320Z,47.60
2018-12-07T13:36:19.180Z,38.50
2018-12-07T13:38:49.208Z,45.23
2018-12-07T13:41:20.624Z,38.93
2018-12-07T13:43:51.196Z,43.30
2018-12-07T13:46:22.472Z,35.27
2018-12-07T13:48:53.464Z,39.33
2018-12-07T13:51:30.210Z,42.17
2018-12-07T13:54:01.547Z,45.20
2018-12-07T13:56:31.340Z,43.10
2018-12-07T13:59:02.245Z,49.93
2018-12-07T14:01:33.418Z,41.43
2018-12-07T14:04:03.645Z,38.50
2018-12-07T14:06:33.698Z,48.50
2018-12-07T14:09:07.378Z,38.60
2018-12-07T14:11:37.769Z,41.90
2018-12-07T14:14:09.325Z,46.73
2018-12-07T14:16:39.392Z,39.10
2018-12-07T14:19:10.519Z,40.80
2018-12-07T14:21:42.522Z,40.03
2018-12-07T14:24:15.655Z,32.07
2018-12-07T14:26:45.582Z,41.80
2018-12-07T14:29:16.498Z,41.80
2018-12-07T14:31:47.338Z,44.20
2018-12-07T14:34:18.791Z,48.97
2018-12-07T14:36:48.700Z,41.27
2018-12-07T14:39:19.938Z,44.43
2018-12-07T14:41:50.648Z,43.67
2018-12-07T14:44:21.547Z,46.07
2018-12-07T14:46:55.092Z,45.03
2018-12-07T14:49:26.506Z,37.53
2018-12-07T14:51:57.059Z,43.70
2018-12-07T14:54:27.732Z,48.87
2018-12-07T14:56:58.424Z,45.13
2018-12-07T14:59:28.571Z,48.23
2018-12-07T15:01:59.791Z,45.53
2018-12-07T15:04:29.603Z,42.83
2018-12-07T15:06:59.753Z,49.03
2018-12-07T15:09:31.538Z,47.30
2018-12-07T15:12:01.804Z,48.37
2018-12-07T15:14:32.379Z,46.53
2018-12-07T15:17:02.829Z,59.93
2018-12-07T15:19:32.588Z,47.00
2018-12-07T15:22:04.611Z,53.87
2018-12-07T15:24:35.104Z,56.30
2018-12-07T15:27:05.787Z,55.90
2018-12-07T15:29:36.535Z,49.03
2018-12-07T15:32:06.743Z,48.33
2018-12-07T15:34:36.886Z,47.80
2018-12-07T15:37:06.719Z,53.80
2018-12-07T15:39:36.802Z,50.93
2018-12-07T15:42:07.108Z,48.57
2018-12-07T15:44:39.813Z,53.27
2018-12-07T15:47:11.724Z,51.03
2018-12-07T15:49:43.828Z,48.73
2018-12-07T15:52:14.229Z,49.43
2018-12-07T15:54:44.029Z,50.33
2018-12-07T15:57:15.088Z,51.17
2018-12-07T15:59:50.642Z,51.10
2018-12-07T16:02:22.072Z,55.47
2018-12-07T16:04:54.191Z,50.57
2018-12-07T16:07:25.993Z,53.00
2018-12-07T16:09:57.747Z,58.90
2018-12-07T16:12:30.051Z,52.53
2018-12-07T16:15:01.001Z,61.33
2018-12-07T16:17:31.997Z,55.00
2018-12-07T16:20:02.257Z,56.03
2018-12-07T16:22:33.068Z,54.83
2018-12-07T16:25:03.896Z,54.10
2018-12-07T16:27:33.639Z,53.10
2018-12-07T16:30:05.651Z,53.07
2018-12-07T16:32:37.232Z,51.93
2018-12-07T16:35:09.034Z,58.47
2018-12-07T16:37:40.056Z,57.20
2018-12-07T16:40:11.021Z,64.17
2018-12-07T16:42:41.622Z,55.63
2018-12-07T16:45:12.121Z,53.20
2018-12-07T16:47:43.025Z,52.37
2018-12-07T16:50:13.126Z,59.23
2018-12-07T16:52:43.285Z,50.80
2018-12-07T16:55:14.887Z,51.37
2018-12-07T16:57:45.778Z,60.53
2018-12-07T17:00:16.348Z,57.17
2018-12-07T17:02:46.268Z,58.27
2018-12-07T17:05:18.201Z,60.30
2018-12-07T17:07:48.628Z,65.33
2018-12-07T17:10:19.129Z,52.93
2018-12-07T17:12:54.569Z,57.50
2018-12-07T17:15:26.263Z,54.70
2018-12-07T17:17:57.442Z,53.27
2018-12-07T17:20:27.117Z,65.63
2018-12-07T17:22:58.194Z,61.60
2018-12-07T17:25:28.019Z,51.57
2018-12-07T17:27:59.197Z,60.77
2018-12-07T17:30:30.226Z,56.83
2018-12-07T17:33:00.364Z,60.03
2018-12-07T17:35:31.373Z,60.57
2018-12-07T17:38:01.439Z,53.70
2018-12-07T17:40:32.354Z,58.57
2018-12-07T17:43:03.408Z,65.97
2018-12-07T17:45:33.927Z,58.10
2018-12-07T17:48:04.708Z,62.23
2018-12-07T17:50:34.370Z,65.03
2018-12-07T17:53:05.701Z,62.23
2018-12-07T17:55:37.125Z,63.33
2018-12-07T17:58:07.368Z,56.97
2018-12-07T18:00:37.348Z,69.00
2018-12-07T18:03:09.371Z,56.40
2018-12-07T18:05:41.289Z,65.20
2018-12-07T18:08:13.584Z,67.03
2018-12-07T18:10:44.621Z,60.23
2018-12-07T18:13:14.456Z,64.83
2018-12-07T18:15:46.333Z,61.60
2018-12-07T18:18:16.952Z,58.70
2018-12-07T18:20:49.329Z,58.00
2018-12-07T18:23:21.834Z,60.07
2018-12-07T18:25:59.511Z,58.40
2018-12-07T18:28:32.212Z,62.13
2018-12-07T18:31:03.456Z,67.67
2018-12-07T18:33:34.424Z,59.87
2018-12-07T18:36:05.765Z,63.30
2018-12-07T18:38:37.684Z,52.70
2018-12-07T18:41:09.688Z,60.70
2018-12-07T18:43:41.636Z,65.63
2018-12-07T18:46:13.514Z,109.30
2018-12-07T18:48:44.774Z,76.67
2018-12-07T18:51:15.477Z,81.60
2018-12-07T18:53:45.717Z,86.30
2018-12-07T18:56:19.676Z,68.03
2018-12-07T18:58:50.653Z,66.43
2018-12-07T19:01:21.431Z,66.17
2018-12-07T19:03:54.365Z,68.73
2018-12-07T19:06:25.789Z,60.80
2018-12-07T19:08:56.791Z,60.30
2018-12-07T19:11:27.992Z,57.40
2018-12-07T19:13:58.932Z,61.97
2018-12-07T19:16:28.833Z,67.60
2018-12-07T19:19:01.763Z,59.37
2018-12-07T19:21:33.818Z,66.27
2018-12-07T19:24:07.072Z,58.83
2018-12-07T19:26:39.811Z,65.47
2018-12-07T19:29:10.766Z,75.77
2018-12-07T19:31:47.838Z,68.67
2018-12-07T19:34:19.118Z,66.70
2018-12-07T19:36:50.246Z,64.03
2018-12-07T19:39:22.889Z,66.67
2018-12-07T19:41:54.089Z,66.97
2018-12-07T19:44:24.899Z,62.17
2018-12-07T19:46:57.110Z,65.93
2018-12-07T19:49:29.105Z,71.77
2018-12-07T19:54:49.656Z,66.73
2018-12-07T19:57:20.252Z,65.30
2018-12-07T19:59:49.980Z,63.60
2018-12-07T20:02:26.745Z,62.27
2018-12-07T20:04:57.212Z,73.67
2018-12-07T20:07:28.190Z,80.37
2018-12-07T20:09:58.848Z,74.20
2018-12-07T20:12:30.180Z,68.17
2018-12-07T20:15:01.019Z,75.03
2018-12-07T20:17:31.261Z,76.80
2018-12-07T20:20:02.261Z,65.47
2018-12-07T20:22:33.340Z,73.27
2018-12-07T20:25:04.593Z,67.23
2018-12-07T20:27:34.556Z,62.47
2018-12-07T20:30:07.786Z,70.03
2018-12-07T20:32:39.016Z,78.60
2018-12-07T20:35:09.245Z,71.73
2018-12-07T20:37:40.311Z,65.97
2018-12-07T20:40:10.357Z,64.67
2018-12-07T20:42:40.374Z,69.20
2018-12-07T20:45:11.399Z,70.83
2018-12-07T20:47:43.220Z,66.87
2018-12-07T20:50:16.234Z,70.33
2018-12-07T20:52:46.237Z,69.60
2018-12-07T20:55:17.257Z,65.30
2018-12-07T20:57:48.430Z,66.77
2018-12-07T21:00:18.123Z,71.97
2018-12-07T21:02:49.039Z,67.97
2018-12-07T21:07:37.561Z,65.97
2018-12-07T21:11:00.818Z,65.50
2018-12-07T21:14:35.648Z,78.37
2018-12-07T21:20:08.655Z,72.30
2018-12-07T21:22:40.249Z,65.80
2018-12-07T21:25:11.367Z,69.50
2018-12-07T21:27:43.678Z,68.30
2018-12-07T21:30:54.036Z,63.23
2018-12-07T21:33:36.227Z,70.67
2018-12-07T21:36:50.032Z,69.83
2018-12-07T21:39:32.789Z,64.33
2018-12-07T21:42:03.360Z,70.10
2018-12-07T21:44:35.055Z,73.00
2018-12-07T21:47:04.716Z,66.87
2018-12-07T21:49:54.029Z,65.30
2018-12-07T21:52:28.544Z,66.23
2018-12-07T21:55:00.438Z,72.13
2018-12-07T21:57:31.408Z,68.67
2018-12-07T22:00:02.681Z,59.73
2018-12-07T22:02:33.424Z,66.23
2018-12-07T22:05:03.864Z,59.60
2018-12-07T22:07:33.932Z,64.57
2018-12-07T22:10:08.807Z,66.33
2018-12-07T22:12:40.515Z,64.07
2018-12-07T22:15:12.650Z,62.63
2018-12-07T22:17:43.368Z,59.40
2018-12-07T22:20:14.501Z,63.90
2018-12-07T22:22:45.947Z,59.83
2018-12-07T22:25:16.492Z,64.37
2018-12-07T22:27:46.603Z,60.20
2018-12-07T22:30:17.342Z,62.67
2018-12-07T22:32:47.959Z,72.70
2018-12-07T22:35:18.738Z,59.33
2018-12-07T22:37:49.117Z,58.40
2018-12-07T22:40:19.736Z,60.53
2018-12-07T22:42:50.468Z,58.27
2018-12-07T22:45:21.163Z,58.97
2018-12-07T22:47:51.751Z,68.43
2018-12-07T22:50:22.235Z,66.37
2018-12-07T22:52:52.538Z,65.47
2018-12-07T22:55:23.475Z,56.73
2018-12-07T22:57:53.567Z,70.00
2018-12-07T23:00:24.809Z,59.57
2018-12-07T23:02:55.830Z,64.03
2018-12-07T23:05:26.449Z,62.83
2018-12-07T23:07:56.640Z,59.17
2018-12-07T23:10:27.748Z,67.03
2018-12-07T23:12:58.804Z,56.07
2018-12-07T23:15:32.521Z,66.17
2018-12-07T23:18:04.859Z,64.47
2018-12-07T23:20:34.477Z,65.77
2018-12-07T23:23:04.665Z,65.93
2018-12-07T23:25:34.271Z,65.57
2018-12-07T23:28:03.796Z,66.93
2018-12-07T23:30:33.820Z,68.00
2018-12-07T23:33:04.991Z,71.37
2018-12-07T23:35:34.540Z,68.30
2018-12-07T23:38:05.012Z,68.40
2018-12-07T23:40:35.009Z,69.27
2018-12-07T23:43:09.717Z,71.43
2018-12-07T23:45:42.196Z,69.00
2018-12-07T23:48:11.777Z,68.40
2018-12-07T23:50:41.969Z,69.10
2018-12-07T23:53:12.936Z,72.93
2018-12-07T23:55:44.028Z,69.93
2018-12-07T23:58:13.853Z,63.33
